sensor_id;sensor_type;location;lat;lon;timestamp;P1;durP1;ratioP1;P2;durP2;ratioP2
2638;SDS011;1329;51.384;7.122;2024-03-17T00:01:02;4.63;;;3.30;;
2638;SDS011;1329;51.384;7.122;2024-03-17T00:03:29;4.80;;;3.37;;
2638;SDS011;1329;51.384;7.122;2024-03-17T00:05:58;5.23;;;3.80;;
2638;SDS011;1329;51.384;7.122;2024-03-17T00:08:26;4.37;;;3.57;;
2638;SDS011;1329;51.384;7.122;2024-03-17T00:10:53;4.00;;;3.47;;
2638;SDS011;1329;51.384;7.122;2024-03-17T00:13:20;3.67;;;3.37;;
2638;SDS011;1329;51.384;7.122;2024-03-17T00:15:47;3.97;;;3.57;;
2638;SDS011;1329;51.384;7.122;2024-03-17T00:18:14;4.73;;;3.27;;
2638;SDS011;1329;51.384;7.122;2024-03-17T00:20:41;4.13;;;3.53;;
2638;SDS011;1329;51.384;7.122;2024-03-17T00:23:09;4.43;;;3.80;;
2638;SDS011;1329;51.384;7.122;2024-03-17T00:25:37;3.87;;;3.40;;
2638;SDS011;1329;51.384;7.122;2024-03-17T00:28:05;4.10;;;3.70;;
2638;SDS011;1329;51.384;7.122;2024-03-17T00:30:31;4.90;;;3.43;;
2638;SDS011;1329;51.384;7.122;2024-03-17T00:32:59;3.67;;;3.37;;
2638;SDS011;1329;51.384;7.122;2024-03-17T00:35:25;4.10;;;3.53;;
2638;SDS011;1329;51.384;7.122;2024-03-17T00:37:53;5.33;;;3.40;;
2638;SDS011;1329;51.384;7.122;2024-03-17T00:40:20;3.83;;;3.53;;
2638;SDS011;1329;51.384;7.122;2024-03-17T00:42:48;4.77;;;3.53;;
2638;SDS011;1329;51.384;7.122;2024-03-17T00:45:14;4.93;;;3.30;;
2638;SDS011;1329;51.384;7.122;2024-03-17T00:47:42;5.73;;;3.43;;
2638;SDS011;1329;51.384;7.122;2024-03-17T00:50:09;3.93;;;3.50;;
2638;SDS011;1329;51.384;7.122;2024-03-17T00:52:37;4.43;;;3.33;;
2638;SDS011;1329;51.384;7.122;2024-03-17T00:55:04;3.97;;;3.37;;
2638;SDS011;1329;51.384;7.122;2024-03-17T00:57:33;3.77;;;3.23;;
2638;SDS011;1329;51.384;7.122;2024-03-17T00:59:59;3.63;;;3.27;;
2638;SDS011;1329;51.384;7.122;2024-03-17T01:02:27;3.97;;;3.57;;
2638;SDS011;1329;51.384;7.122;2024-03-17T01:04:53;4.47;;;3.50;;
2638;SDS011;1329;51.384;7.122;2024-03-17T01:07:21;4.17;;;3.77;;
2638;SDS011;1329;51.384;7.122;2024-03-17T01:09:47;3.77;;;3.40;;
2638;SDS011;1329;51.384;7.122;2024-03-17T01:12:14;3.80;;;3.50;;
2638;SDS011;1329;51.384;7.122;2024-03-17T01:14:42;5.07;;;3.70;;
2638;SDS011;1329;51.384;7.122;2024-03-17T01:17:09;6.13;;;3.40;;
2638;SDS011;1329;51.384;7.122;2024-03-17T01:19:35;4.60;;;3.50;;
2638;SDS011;1329;51.384;7.122;2024-03-17T01:22:02;3.87;;;3.43;;
2638;SDS011;1329;51.384;7.122;2024-03-17T01:24:29;5.97;;;3.23;;
2638;SDS011;1329;51.384;7.122;2024-03-17T01:26:59;5.00;;;3.30;;
2638;SDS011;1329;51.384;7.122;2024-03-17T01:29:25;6.80;;;3.57;;
2638;SDS011;1329;51.384;7.122;2024-03-17T01:31:54;3.93;;;3.53;;
2638;SDS011;1329;51.384;7.122;2024-03-17T01:34:20;3.90;;;3.50;;
2638;SDS011;1329;51.384;7.122;2024-03-17T01:36:48;3.73;;;3.30;;
2638;SDS011;1329;51.384;7.122;2024-03-17T01:39:14;5.63;;;3.57;;
2638;SDS011;1329;51.384;7.122;2024-03-17T01:41:42;5.00;;;3.87;;
2638;SDS011;1329;51.384;7.122;2024-03-17T01:44:10;5.33;;;3.53;;
2638;SDS011;1329;51.384;7.122;2024-03-17T01:46:49;3.63;;;3.20;;
2638;SDS011;1329;51.384;7.122;2024-03-17T01:49:17;3.70;;;3.40;;
2638;SDS011;1329;51.384;7.122;2024-03-17T01:51:45;3.63;;;3.13;;
2638;SDS011;1329;51.384;7.122;2024-03-17T01:54:13;5.70;;;3.63;;
2638;SDS011;1329;51.384;7.122;2024-03-17T01:56:40;3.73;;;3.30;;
2638;SDS011;1329;51.384;7.122;2024-03-17T01:59:08;4.10;;;3.53;;
2638;SDS011;1329;51.384;7.122;2024-03-17T02:01:35;5.23;;;3.60;;
2638;SDS011;1329;51.384;7.122;2024-03-17T02:04:02;3.87;;;3.33;;
2638;SDS011;1329;51.384;7.122;2024-03-17T02:06:32;4.00;;;3.60;;
2638;SDS011;1329;51.384;7.122;2024-03-17T02:08:59;3.53;;;3.23;;
2638;SDS011;1329;51.384;7.122;2024-03-17T02:11:26;5.10;;;3.50;;
2638;SDS011;1329;51.384;7.122;2024-03-17T02:13:55;5.07;;;3.60;;
2638;SDS011;1329;51.384;7.122;2024-03-17T02:16:22;4.07;;;3.67;;
2638;SDS011;1329;51.384;7.122;2024-03-17T02:18:53;4.57;;;3.80;;
2638;SDS011;1329;51.384;7.122;2024-03-17T02:21:21;4.23;;;3.57;;
2638;SDS011;1329;51.384;7.122;2024-03-17T02:23:49;4.43;;;3.93;;
2638;SDS011;1329;51.384;7.122;2024-03-17T02:26:17;4.30;;;3.50;;
2638;SDS011;1329;51.384;7.122;2024-03-17T02:28:44;4.60;;;3.33;;
2638;SDS011;1329;51.384;7.122;2024-03-17T02:31:14;4.20;;;3.80;;
2638;SDS011;1329;51.384;7.122;2024-03-17T02:33:41;3.93;;;3.53;;
2638;SDS011;1329;51.384;7.122;2024-03-17T02:36:10;4.00;;;3.60;;
2638;SDS011;1329;51.384;7.122;2024-03-17T02:38:37;4.30;;;3.90;;
2638;SDS011;1329;51.384;7.122;2024-03-17T02:41:24;4.70;;;3.70;;
2638;SDS011;1329;51.384;7.122;2024-03-17T02:43:51;4.67;;;4.00;;
2638;SDS011;1329;51.384;7.122;2024-03-17T02:46:19;5.60;;;5.00;;
2638;SDS011;1329;51.384;7.122;2024-03-17T02:48:48;5.00;;;4.00;;
2638;SDS011;1329;51.384;7.122;2024-03-17T02:51:18;4.77;;;3.97;;
2638;SDS011;1329;51.384;7.122;2024-03-17T02:53:47;5.60;;;4.07;;
2638;SDS011;1329;51.384;7.122;2024-03-17T02:56:16;5.90;;;4.30;;
2638;SDS011;1329;51.384;7.122;2024-03-17T02:58:46;5.03;;;4.27;;
2638;SDS011;1329;51.384;7.122;2024-03-17T03:01:14;4.23;;;3.83;;
2638;SDS011;1329;51.384;7.122;2024-03-17T03:03:42;4.87;;;4.33;;
2638;SDS011;1329;51.384;7.122;2024-03-17T03:06:10;4.53;;;4.13;;
2638;SDS011;1329;51.384;7.122;2024-03-17T03:08:38;4.30;;;3.93;;
2638;SDS011;1329;51.384;7.122;2024-03-17T03:11:06;6.20;;;4.70;;
2638;SDS011;1329;51.384;7.122;2024-03-17T03:13:36;5.80;;;4.40;;
2638;SDS011;1329;51.384;7.122;2024-03-17T03:16:06;4.73;;;4.00;;
2638;SDS011;1329;51.384;7.122;2024-03-17T03:18:35;4.60;;;4.00;;
2638;SDS011;1329;51.384;7.122;2024-03-17T03:21:02;5.67;;;3.90;;
2638;SDS011;1329;51.384;7.122;2024-03-17T03:23:30;4.97;;;4.43;;
2638;SDS011;1329;51.384;7.122;2024-03-17T03:25:59;4.57;;;3.83;;
2638;SDS011;1329;51.384;7.122;2024-03-17T03:28:28;4.50;;;4.10;;
2638;SDS011;1329;51.384;7.122;2024-03-17T03:30:57;4.93;;;3.97;;
2638;SDS011;1329;51.384;7.122;2024-03-17T03:33:26;4.87;;;4.37;;
2638;SDS011;1329;51.384;7.122;2024-03-17T03:35:53;6.03;;;4.63;;
2638;SDS011;1329;51.384;7.122;2024-03-17T03:38:23;4.83;;;4.30;;
2638;SDS011;1329;51.384;7.122;2024-03-17T03:40:50;5.20;;;4.47;;
2638;SDS011;1329;51.384;7.122;2024-03-17T03:43:18;5.53;;;4.40;;
2638;SDS011;1329;51.384;7.122;2024-03-17T03:45:46;5.57;;;4.37;;
2638;SDS011;1329;51.384;7.122;2024-03-17T03:48:13;6.07;;;4.30;;
2638;SDS011;1329;51.384;7.122;2024-03-17T03:50:42;5.53;;;4.70;;
2638;SDS011;1329;51.384;7.122;2024-03-17T03:53:10;5.80;;;5.13;;
2638;SDS011;1329;51.384;7.122;2024-03-17T03:55:37;5.37;;;4.77;;
2638;SDS011;1329;51.384;7.122;2024-03-17T03:58:04;6.67;;;5.20;;
2638;SDS011;1329;51.384;7.122;2024-03-17T04:00:32;6.23;;;5.20;;
2638;SDS011;1329;51.384;7.122;2024-03-17T04:03:00;6.90;;;5.07;;
2638;SDS011;1329;51.384;7.122;2024-03-17T04:05:28;6.17;;;5.23;;
2638;SDS011;1329;51.384;7.122;2024-03-17T04:07:57;6.27;;;5.13;;
2638;SDS011;1329;51.384;7.122;2024-03-17T04:10:25;6.23;;;5.47;;
2638;SDS011;1329;51.384;7.122;2024-03-17T04:12:52;6.27;;;5.40;;
2638;SDS011;1329;51.384;7.122;2024-03-17T04:15:20;7.73;;;6.30;;
2638;SDS011;1329;51.384;7.122;2024-03-17T04:17:47;7.33;;;5.80;;
2638;SDS011;1329;51.384;7.122;2024-03-17T04:20:15;6.70;;;6.00;;
2638;SDS011;1329;51.384;7.122;2024-03-17T04:22:42;7.33;;;6.50;;
2638;SDS011;1329;51.384;7.122;2024-03-17T04:25:13;8.80;;;6.60;;
2638;SDS011;1329;51.384;7.122;2024-03-17T04:27:40;8.23;;;6.97;;
2638;SDS011;1329;51.384;7.122;2024-03-17T04:30:09;9.33;;;7.20;;
2638;SDS011;1329;51.384;7.122;2024-03-17T04:32:37;8.73;;;7.03;;
2638;SDS011;1329;51.384;7.122;2024-03-17T04:35:06;7.93;;;7.13;;
2638;SDS011;1329;51.384;7.122;2024-03-17T04:37:33;8.60;;;7.00;;
2638;SDS011;1329;51.384;7.122;2024-03-17T04:40:04;7.83;;;7.03;;
2638;SDS011;1329;51.384;7.122;2024-03-17T04:42:37;8.20;;;6.80;;
2638;SDS011;1329;51.384;7.122;2024-03-17T04:45:05;9.23;;;7.53;;
2638;SDS011;1329;51.384;7.122;2024-03-17T04:47:35;10.27;;;6.93;;
2638;SDS011;1329;51.384;7.122;2024-03-17T04:50:04;8.90;;;7.17;;
2638;SDS011;1329;51.384;7.122;2024-03-17T04:52:32;7.80;;;6.70;;
2638;SDS011;1329;51.384;7.122;2024-03-17T04:54:59;6.90;;;6.10;;
2638;SDS011;1329;51.384;7.122;2024-03-17T04:57:29;6.77;;;6.07;;
2638;SDS011;1329;51.384;7.122;2024-03-17T04:59:58;7.27;;;5.87;;
2638;SDS011;1329;51.384;7.122;2024-03-17T05:02:25;8.00;;;6.80;;
2638;SDS011;1329;51.384;7.122;2024-03-17T05:04:53;7.33;;;6.23;;
2638;SDS011;1329;51.384;7.122;2024-03-17T05:07:20;8.33;;;6.93;;
2638;SDS011;1329;51.384;7.122;2024-03-17T05:09:48;6.37;;;5.57;;
2638;SDS011;1329;51.384;7.122;2024-03-17T05:12:15;9.53;;;6.57;;
2638;SDS011;1329;51.384;7.122;2024-03-17T05:14:43;8.30;;;6.53;;
2638;SDS011;1329;51.384;7.122;2024-03-17T05:17:12;7.33;;;5.93;;
2638;SDS011;1329;51.384;7.122;2024-03-17T05:19:39;6.53;;;5.93;;
2638;SDS011;1329;51.384;7.122;2024-03-17T05:22:07;6.17;;;5.53;;
2638;SDS011;1329;51.384;7.122;2024-03-17T05:24:35;7.53;;;6.20;;
2638;SDS011;1329;51.384;7.122;2024-03-17T05:27:03;6.77;;;6.03;;
2638;SDS011;1329;51.384;7.122;2024-03-17T05:29:30;7.63;;;6.37;;
2638;SDS011;1329;51.384;7.122;2024-03-17T05:31:58;9.07;;;7.17;;
2638;SDS011;1329;51.384;7.122;2024-03-17T05:34:29;8.00;;;7.20;;
2638;SDS011;1329;51.384;7.122;2024-03-17T05:36:57;6.93;;;6.13;;
2638;SDS011;1329;51.384;7.122;2024-03-17T05:39:24;8.30;;;6.80;;
2638;SDS011;1329;51.384;7.122;2024-03-17T05:41:52;9.07;;;6.60;;
2638;SDS011;1329;51.384;7.122;2024-03-17T05:44:19;10.97;;;7.07;;
2638;SDS011;1329;51.384;7.122;2024-03-17T05:46:46;9.10;;;7.13;;
2638;SDS011;1329;51.384;7.122;2024-03-17T05:49:16;9.47;;;7.80;;
2638;SDS011;1329;51.384;7.122;2024-03-17T05:51:46;10.53;;;8.03;;
2638;SDS011;1329;51.384;7.122;2024-03-17T05:54:13;9.93;;;8.20;;
2638;SDS011;1329;51.384;7.122;2024-03-17T05:56:40;9.40;;;7.30;;
2638;SDS011;1329;51.384;7.122;2024-03-17T05:59:08;9.10;;;7.50;;
2638;SDS011;1329;51.384;7.122;2024-03-17T06:01:35;10.07;;;7.90;;
2638;SDS011;1329;51.384;7.122;2024-03-17T06:04:02;8.73;;;7.83;;
2638;SDS011;1329;51.384;7.122;2024-03-17T06:06:30;10.20;;;8.40;;
2638;SDS011;1329;51.384;7.122;2024-03-17T06:08:58;10.33;;;8.47;;
2638;SDS011;1329;51.384;7.122;2024-03-17T06:11:25;10.90;;;9.47;;
2638;SDS011;1329;51.384;7.122;2024-03-17T06:13:52;9.63;;;8.20;;
2638;SDS011;1329;51.384;7.122;2024-03-17T06:16:19;11.10;;;8.27;;
2638;SDS011;1329;51.384;7.122;2024-03-17T06:18:46;11.47;;;9.00;;
2638;SDS011;1329;51.384;7.122;2024-03-17T06:21:15;10.50;;;9.27;;
2638;SDS011;1329;51.384;7.122;2024-03-17T06:23:42;10.83;;;9.07;;
2638;SDS011;1329;51.384;7.122;2024-03-17T06:26:12;11.50;;;9.40;;
2638;SDS011;1329;51.384;7.122;2024-03-17T06:28:40;9.90;;;8.90;;
2638;SDS011;1329;51.384;7.122;2024-03-17T06:31:07;10.20;;;8.53;;
2638;SDS011;1329;51.384;7.122;2024-03-17T06:33:35;9.40;;;8.27;;
2638;SDS011;1329;51.384;7.122;2024-03-17T06:36:02;10.67;;;8.73;;
2638;SDS011;1329;51.384;7.122;2024-03-17T06:38:30;9.60;;;8.20;;
2638;SDS011;1329;51.384;7.122;2024-03-17T06:40:57;9.73;;;8.00;;
2638;SDS011;1329;51.384;7.122;2024-03-17T06:43:26;9.00;;;7.53;;
2638;SDS011;1329;51.384;7.122;2024-03-17T06:45:53;8.57;;;7.77;;
2638;SDS011;1329;51.384;7.122;2024-03-17T06:48:22;8.67;;;7.60;;
2638;SDS011;1329;51.384;7.122;2024-03-17T06:50:49;8.80;;;7.50;;
2638;SDS011;1329;51.384;7.122;2024-03-17T06:53:17;10.93;;;7.77;;
2638;SDS011;1329;51.384;7.122;2024-03-17T06:55:51;8.17;;;7.30;;
2638;SDS011;1329;51.384;7.122;2024-03-17T06:58:19;8.43;;;7.43;;
2638;SDS011;1329;51.384;7.122;2024-03-17T07:00:53;8.20;;;6.70;;
2638;SDS011;1329;51.384;7.122;2024-03-17T07:03:22;7.70;;;6.90;;
2638;SDS011;1329;51.384;7.122;2024-03-17T07:05:51;7.73;;;6.93;;
2638;SDS011;1329;51.384;7.122;2024-03-17T07:08:19;7.63;;;6.87;;
2638;SDS011;1329;51.384;7.122;2024-03-17T07:10:54;7.93;;;6.57;;
2638;SDS011;1329;51.384;7.122;2024-03-17T07:13:28;7.50;;;6.50;;
2638;SDS011;1329;51.384;7.122;2024-03-17T07:16:01;6.53;;;5.93;;
2638;SDS011;1329;51.384;7.122;2024-03-17T07:18:30;7.00;;;6.23;;
2638;SDS011;1329;51.384;7.122;2024-03-17T07:20:59;7.40;;;6.67;;
2638;SDS011;1329;51.384;7.122;2024-03-17T07:23:29;7.17;;;6.47;;
2638;SDS011;1329;51.384;7.122;2024-03-17T07:25:57;7.20;;;6.50;;
2638;SDS011;1329;51.384;7.122;2024-03-17T07:28:30;7.67;;;6.67;;
2638;SDS011;1329;51.384;7.122;2024-03-17T07:30:58;7.73;;;6.93;;
2638;SDS011;1329;51.384;7.122;2024-03-17T07:33:27;7.00;;;6.40;;
2638;SDS011;1329;51.384;7.122;2024-03-17T07:35:55;8.17;;;6.60;;
2638;SDS011;1329;51.384;7.122;2024-03-17T07:38:25;7.00;;;6.30;;
2638;SDS011;1329;51.384;7.122;2024-03-17T07:40:58;6.87;;;6.13;;
2638;SDS011;1329;51.384;7.122;2024-03-17T07:43:26;7.17;;;6.17;;
2638;SDS011;1329;51.384;7.122;2024-03-17T07:46:03;6.63;;;6.03;;
2638;SDS011;1329;51.384;7.122;2024-03-17T07:48:35;6.90;;;5.63;;
2638;SDS011;1329;51.384;7.122;2024-03-17T07:51:04;7.23;;;6.00;;
2638;SDS011;1329;51.384;7.122;2024-03-17T07:53:32;6.23;;;5.63;;
2638;SDS011;1329;51.384;7.122;2024-03-17T07:56:00;6.47;;;5.83;;
2638;SDS011;1329;51.384;7.122;2024-03-17T07:58:29;6.37;;;5.10;;
2638;SDS011;1329;51.384;7.122;2024-03-17T08:00:58;5.57;;;5.07;;
2638;SDS011;1329;51.384;7.122;2024-03-17T08:03:28;5.90;;;5.30;;
2638;SDS011;1329;51.384;7.122;2024-03-17T08:05:57;5.90;;;5.40;;
2638;SDS011;1329;51.384;7.122;2024-03-17T08:08:24;5.20;;;4.70;;
2638;SDS011;1329;51.384;7.122;2024-03-17T08:10:51;5.47;;;4.90;;
2638;SDS011;1329;51.384;7.122;2024-03-17T08:13:19;5.17;;;4.67;;
2638;SDS011;1329;51.384;7.122;2024-03-17T08:15:54;4.87;;;4.37;;
2638;SDS011;1329;51.384;7.122;2024-03-17T08:18:23;4.73;;;4.33;;
2638;SDS011;1329;51.384;7.122;2024-03-17T08:20:53;4.77;;;4.37;;
2638;SDS011;1329;51.384;7.122;2024-03-17T08:23:21;4.37;;;3.97;;
2638;SDS011;1329;51.384;7.122;2024-03-17T08:25:54;4.77;;;4.13;;
2638;SDS011;1329;51.384;7.122;2024-03-17T08:28:24;4.27;;;3.87;;
2638;SDS011;1329;51.384;7.122;2024-03-17T08:32:21;3.83;;;3.53;;
2638;SDS011;1329;51.384;7.122;2024-03-17T08:34:46;3.90;;;3.50;;
2638;SDS011;1329;51.384;7.122;2024-03-17T08:37:42;4.03;;;3.73;;
2638;SDS011;1329;51.384;7.122;2024-03-17T08:40:17;4.27;;;3.87;;
2638;SDS011;1329;51.384;7.122;2024-03-17T08:42:44;5.17;;;3.87;;
2638;SDS011;1329;51.384;7.122;2024-03-17T08:45:14;3.43;;;3.13;;
2638;SDS011;1329;51.384;7.122;2024-03-17T08:47:42;3.70;;;3.37;;
2638;SDS011;1329;51.384;7.122;2024-03-17T08:50:09;3.83;;;3.50;;
2638;SDS011;1329;51.384;7.122;2024-03-17T08:52:45;3.57;;;3.27;;
2638;SDS011;1329;51.384;7.122;2024-03-17T08:55:12;3.90;;;3.50;;
2638;SDS011;1329;51.384;7.122;2024-03-17T08:57:39;3.57;;;3.27;;
2638;SDS011;1329;51.384;7.122;2024-03-17T09:00:07;4.13;;;3.13;;
2638;SDS011;1329;51.384;7.122;2024-03-17T09:02:36;3.33;;;3.03;;
2638;SDS011;1329;51.384;7.122;2024-03-17T09:05:03;3.70;;;3.37;;
2638;SDS011;1329;51.384;7.122;2024-03-17T09:07:31;3.72;;;3.35;;
2638;SDS011;1329;51.384;7.122;2024-03-17T09:09:59;3.57;;;3.17;;
2638;SDS011;1329;51.384;7.122;2024-03-17T09:12:26;4.03;;;3.63;;
2638;SDS011;1329;51.384;7.122;2024-03-17T09:14:53;3.28;;;2.97;;
2638;SDS011;1329;51.384;7.122;2024-03-17T09:17:20;3.72;;;3.42;;
2638;SDS011;1329;51.384;7.122;2024-03-17T09:19:47;3.75;;;3.45;;
2638;SDS011;1329;51.384;7.122;2024-03-17T09:22:15;4.57;;;3.25;;
2638;SDS011;1329;51.384;7.122;2024-03-17T09:24:42;3.40;;;3.10;;
2638;SDS011;1329;51.384;7.122;2024-03-17T09:27:10;4.53;;;3.30;;
2638;SDS011;1329;51.384;7.122;2024-03-17T09:29:37;3.45;;;3.15;;
2638;SDS011;1329;51.384;7.122;2024-03-17T09:32:04;3.60;;;3.03;;
2638;SDS011;1329;51.384;7.122;2024-03-17T09:34:33;3.45;;;3.15;;
2638;SDS011;1329;51.384;7.122;2024-03-17T09:37:00;3.60;;;3.30;;
2638;SDS011;1329;51.384;7.122;2024-03-17T09:39:27;3.55;;;3.10;;
2638;SDS011;1329;51.384;7.122;2024-03-17T09:41:55;3.90;;;3.50;;
2638;SDS011;1329;51.384;7.122;2024-03-17T09:44:24;3.35;;;2.97;;
2638;SDS011;1329;51.384;7.122;2024-03-17T09:46:53;3.60;;;3.30;;
2638;SDS011;1329;51.384;7.122;2024-03-17T09:49:20;5.13;;;3.25;;
2638;SDS011;1329;51.384;7.122;2024-03-17T09:51:47;3.40;;;3.15;;
2638;SDS011;1329;51.384;7.122;2024-03-17T09:54:19;3.88;;;3.58;;
2638;SDS011;1329;51.384;7.122;2024-03-17T09:56:46;3.95;;;3.65;;
2638;SDS011;1329;51.384;7.122;2024-03-17T09:59:16;4.35;;;3.60;;
2638;SDS011;1329;51.384;7.122;2024-03-17T10:01:45;3.78;;;3.47;;
2638;SDS011;1329;51.384;7.122;2024-03-17T10:04:14;4.28;;;3.72;;
2638;SDS011;1329;51.384;7.122;2024-03-17T10:06:59;4.03;;;3.40;;
2638;SDS011;1329;51.384;7.122;2024-03-17T10:09:26;4.13;;;3.72;;
2638;SDS011;1329;51.384;7.122;2024-03-17T10:11:57;3.95;;;3.55;;
2638;SDS011;1329;51.384;7.122;2024-03-17T10:14:24;4.00;;;3.58;;
2638;SDS011;1329;51.384;7.122;2024-03-17T10:16:53;4.25;;;3.88;;
2638;SDS011;1329;51.384;7.122;2024-03-17T10:19:21;4.63;;;3.80;;
2638;SDS011;1329;51.384;7.122;2024-03-17T10:21:51;3.83;;;3.53;;
2638;SDS011;1329;51.384;7.122;2024-03-17T10:24:29;3.88;;;3.58;;
2638;SDS011;1329;51.384;7.122;2024-03-17T10:26:59;4.22;;;3.40;;
2638;SDS011;1329;51.384;7.122;2024-03-17T10:29:34;3.85;;;3.55;;
2638;SDS011;1329;51.384;7.122;2024-03-17T10:32:04;4.10;;;3.63;;
2638;SDS011;1329;51.384;7.122;2024-03-17T10:34:39;3.75;;;3.38;;
2638;SDS011;1329;51.384;7.122;2024-03-17T10:37:14;3.70;;;3.40;;
2638;SDS011;1329;51.384;7.122;2024-03-17T10:39:45;5.55;;;4.90;;
2638;SDS011;1329;51.384;7.122;2024-03-17T10:42:13;4.88;;;4.45;;
2638;SDS011;1329;51.384;7.122;2024-03-17T10:44:42;4.80;;;4.30;;
2638;SDS011;1329;51.384;7.122;2024-03-17T10:47:17;4.40;;;4.00;;
2638;SDS011;1329;51.384;7.122;2024-03-17T10:49:49;4.30;;;3.90;;
2638;SDS011;1329;51.384;7.122;2024-03-17T10:52:18;4.70;;;4.18;;
2638;SDS011;1329;51.384;7.122;2024-03-17T10:54:46;5.53;;;4.10;;
2638;SDS011;1329;51.384;7.122;2024-03-17T10:57:21;4.68;;;4.13;;
2638;SDS011;1329;51.384;7.122;2024-03-17T11:00:05;3.78;;;3.47;;
2638;SDS011;1329;51.384;7.122;2024-03-17T11:02:35;3.75;;;3.45;;
2638;SDS011;1329;51.384;7.122;2024-03-17T11:05:03;4.25;;;3.85;;
2638;SDS011;1329;51.384;7.122;2024-03-17T11:07:38;4.20;;;3.78;;
2638;SDS011;1329;51.384;7.122;2024-03-17T11:10:10;4.03;;;3.63;;
2638;SDS011;1329;51.384;7.122;2024-03-17T11:12:44;3.85;;;3.50;;
2638;SDS011;1329;51.384;7.122;2024-03-17T11:21:00;3.50;;;3.20;;
2638;SDS011;1329;51.384;7.122;2024-03-17T11:23:33;4.28;;;3.60;;
2638;SDS011;1329;51.384;7.122;2024-03-17T11:26:02;4.72;;;3.85;;
2638;SDS011;1329;51.384;7.122;2024-03-17T11:28:46;4.78;;;3.95;;
2638;SDS011;1329;51.384;7.122;2024-03-17T11:34:29;3.85;;;3.53;;
2638;SDS011;1329;51.384;7.122;2024-03-17T11:37:00;5.32;;;3.67;;
2638;SDS011;1329;51.384;7.122;2024-03-17T11:39:49;4.10;;;3.60;;
2638;SDS011;1329;51.384;7.122;2024-03-17T11:42:21;3.85;;;3.55;;
2638;SDS011;1329;51.384;7.122;2024-03-17T11:45:00;3.92;;;3.60;;
2638;SDS011;1329;51.384;7.122;2024-03-17T11:47:38;3.60;;;3.30;;
2638;SDS011;1329;51.384;7.122;2024-03-17T11:50:10;3.67;;;3.38;;
2638;SDS011;1329;51.384;7.122;2024-03-17T11:52:38;3.63;;;3.33;;
2638;SDS011;1329;51.384;7.122;2024-03-17T11:55:15;3.72;;;3.42;;
2638;SDS011;1329;51.384;7.122;2024-03-17T11:57:44;3.88;;;3.47;;
2638;SDS011;1329;51.384;7.122;2024-03-17T12:00:27;5.88;;;4.85;;
2638;SDS011;1329;51.384;7.122;2024-03-17T12:03:04;4.07;;;3.72;;
2638;SDS011;1329;51.384;7.122;2024-03-17T12:05:37;3.92;;;3.60;;
2638;SDS011;1329;51.384;7.122;2024-03-17T12:08:07;3.75;;;3.45;;
2638;SDS011;1329;51.384;7.122;2024-03-17T12:10:47;3.90;;;3.50;;
2638;SDS011;1329;51.384;7.122;2024-03-17T12:13:13;3.80;;;3.50;;
2638;SDS011;1329;51.384;7.122;2024-03-17T12:15:40;4.45;;;3.75;;
2638;SDS011;1329;51.384;7.122;2024-03-17T12:18:18;4.10;;;3.70;;
2638;SDS011;1329;51.384;7.122;2024-03-17T12:20:48;4.00;;;3.30;;
2638;SDS011;1329;51.384;7.122;2024-03-17T12:23:14;4.82;;;3.72;;
2638;SDS011;1329;51.384;7.122;2024-03-17T12:25:46;3.63;;;3.33;;
2638;SDS011;1329;51.384;7.122;2024-03-17T12:28:13;3.40;;;3.15;;
2638;SDS011;1329;51.384;7.122;2024-03-17T12:30:42;3.47;;;3.17;;
2638;SDS011;1329;51.384;7.122;2024-03-17T12:33:09;3.53;;;3.22;;
2638;SDS011;1329;51.384;7.122;2024-03-17T12:35:39;4.28;;;3.22;;
2638;SDS011;1329;51.384;7.122;2024-03-17T12:38:19;3.58;;;3.28;;
2638;SDS011;1329;51.384;7.122;2024-03-17T12:40:48;3.45;;;2.95;;
2638;SDS011;1329;51.384;7.122;2024-03-17T12:43:14;4.20;;;3.42;;
2638;SDS011;1329;51.384;7.122;2024-03-17T12:45:41;4.00;;;3.17;;
2638;SDS011;1329;51.384;7.122;2024-03-17T12:48:12;3.95;;;3.10;;
2638;SDS011;1329;51.384;7.122;2024-03-17T12:50:44;3.63;;;3.13;;
2638;SDS011;1329;51.384;7.122;2024-03-17T12:53:13;3.20;;;2.90;;
2638;SDS011;1329;51.384;7.122;2024-03-17T12:55:44;3.50;;;3.20;;
2638;SDS011;1329;51.384;7.122;2024-03-17T12:58:37;3.42;;;2.88;;
2638;SDS011;1329;51.384;7.122;2024-03-17T13:01:21;3.40;;;3.10;;
2638;SDS011;1329;51.384;7.122;2024-03-17T13:03:48;3.28;;;2.97;;
2638;SDS011;1329;51.384;7.122;2024-03-17T13:06:21;3.30;;;3.00;;
2638;SDS011;1329;51.384;7.122;2024-03-17T13:08:50;3.40;;;3.08;;
2638;SDS011;1329;51.384;7.122;2024-03-17T13:11:20;3.47;;;2.85;;
2638;SDS011;1329;51.384;7.122;2024-03-17T13:13:49;2.80;;;2.60;;
2638;SDS011;1329;51.384;7.122;2024-03-17T13:16:16;3.58;;;3.00;;
2638;SDS011;1329;51.384;7.122;2024-03-17T13:18:43;3.22;;;2.90;;
2638;SDS011;1329;51.384;7.122;2024-03-17T13:21:10;3.17;;;2.97;;
2638;SDS011;1329;51.384;7.122;2024-03-17T13:23:36;3.20;;;2.90;;
2638;SDS011;1329;51.384;7.122;2024-03-17T13:26:04;3.80;;;3.00;;
2638;SDS011;1329;51.384;7.122;2024-03-17T13:28:33;3.03;;;2.72;;
2638;SDS011;1329;51.384;7.122;2024-03-17T13:31:02;2.83;;;2.63;;
2638;SDS011;1329;51.384;7.122;2024-03-17T13:33:30;3.20;;;2.72;;
2638;SDS011;1329;51.384;7.122;2024-03-17T13:35:58;3.00;;;2.70;;
2638;SDS011;1329;51.384;7.122;2024-03-17T13:38:25;3.65;;;2.67;;
2638;SDS011;1329;51.384;7.122;2024-03-17T13:40:53;3.42;;;3.13;;
2638;SDS011;1329;51.384;7.122;2024-03-17T13:43:19;2.70;;;2.50;;
2638;SDS011;1329;51.384;7.122;2024-03-17T13:45:48;2.63;;;2.40;;
2638;SDS011;1329;51.384;7.122;2024-03-17T13:48:15;2.65;;;2.35;;
2638;SDS011;1329;51.384;7.122;2024-03-17T13:50:42;2.50;;;2.30;;
2638;SDS011;1329;51.384;7.122;2024-03-17T13:53:12;2.47;;;2.28;;
2638;SDS011;1329;51.384;7.122;2024-03-17T13:55:39;3.50;;;2.88;;
2638;SDS011;1329;51.384;7.122;2024-03-17T13:58:06;2.78;;;2.55;;
2638;SDS011;1329;51.384;7.122;2024-03-17T14:00:33;2.80;;;2.47;;
2638;SDS011;1329;51.384;7.122;2024-03-17T14:03:06;2.75;;;2.55;;
2638;SDS011;1329;51.384;7.122;2024-03-17T14:05:32;2.80;;;2.40;;
2638;SDS011;1329;51.384;7.122;2024-03-17T14:08:00;2.65;;;2.45;;
2638;SDS011;1329;51.384;7.122;2024-03-17T14:10:27;2.78;;;2.47;;
2638;SDS011;1329;51.384;7.122;2024-03-17T14:12:54;2.80;;;2.60;;
2638;SDS011;1329;51.384;7.122;2024-03-17T14:15:22;3.33;;;2.40;;
2638;SDS011;1329;51.384;7.122;2024-03-17T14:17:50;3.00;;;2.65;;
2638;SDS011;1329;51.384;7.122;2024-03-17T14:20:18;2.58;;;2.38;;
2638;SDS011;1329;51.384;7.122;2024-03-17T14:22:46;2.75;;;2.55;;
2638;SDS011;1329;51.384;7.122;2024-03-17T14:25:18;4.05;;;2.60;;
2638;SDS011;1329;51.384;7.122;2024-03-17T14:27:48;3.22;;;2.78;;
2638;SDS011;1329;51.384;7.122;2024-03-17T14:30:15;3.28;;;2.72;;
2638;SDS011;1329;51.384;7.122;2024-03-17T14:32:44;2.92;;;2.63;;
2638;SDS011;1329;51.384;7.122;2024-03-17T14:35:12;2.50;;;2.30;;
2638;SDS011;1329;51.384;7.122;2024-03-17T14:37:42;2.75;;;2.20;;
2638;SDS011;1329;51.384;7.122;2024-03-17T14:40:12;3.25;;;2.13;;
2638;SDS011;1329;51.384;7.122;2024-03-17T14:42:45;2.45;;;2.25;;
2638;SDS011;1329;51.384;7.122;2024-03-17T14:45:12;2.67;;;1.98;;
2638;SDS011;1329;51.384;7.122;2024-03-17T14:47:39;2.33;;;2.15;;
2638;SDS011;1329;51.384;7.122;2024-03-17T14:50:07;2.70;;;2.50;;
2638;SDS011;1329;51.384;7.122;2024-03-17T14:52:34;3.17;;;2.67;;
2638;SDS011;1329;51.384;7.122;2024-03-17T14:55:03;2.78;;;2.40;;
2638;SDS011;1329;51.384;7.122;2024-03-17T14:57:30;2.75;;;2.15;;
2638;SDS011;1329;51.384;7.122;2024-03-17T14:59:58;3.40;;;2.60;;
2638;SDS011;1329;51.384;7.122;2024-03-17T15:02:26;2.95;;;2.25;;
2638;SDS011;1329;51.384;7.122;2024-03-17T15:04:53;2.50;;;2.30;;
2638;SDS011;1329;51.384;7.122;2024-03-17T15:07:20;2.70;;;2.50;;
2638;SDS011;1329;51.384;7.122;2024-03-17T15:09:48;3.00;;;2.45;;
2638;SDS011;1329;51.384;7.122;2024-03-17T15:12:17;2.83;;;1.95;;
2638;SDS011;1329;51.384;7.122;2024-03-17T15:14:46;2.33;;;2.10;;
2638;SDS011;1329;51.384;7.122;2024-03-17T15:17:13;2.20;;;1.98;;
2638;SDS011;1329;51.384;7.122;2024-03-17T15:19:42;2.15;;;1.92;;
2638;SDS011;1329;51.384;7.122;2024-03-17T15:22:09;2.50;;;2.10;;
2638;SDS011;1329;51.384;7.122;2024-03-17T15:24:35;2.25;;;2.05;;
2638;SDS011;1329;51.384;7.122;2024-03-17T15:27:02;2.60;;;2.40;;
2638;SDS011;1329;51.384;7.122;2024-03-17T15:29:31;2.22;;;1.98;;
2638;SDS011;1329;51.384;7.122;2024-03-17T15:31:58;2.20;;;2.00;;
2638;SDS011;1329;51.384;7.122;2024-03-17T15:34:25;2.00;;;1.80;;
2638;SDS011;1329;51.384;7.122;2024-03-17T15:36:56;2.15;;;1.90;;